Time,TemperatureF,DewpointF,PressureIn,WindDirection,WindDirectionDegrees,WindSpeedMPH,WindSpeedGustMPH,Humidity,HourlyPrecipIn,Conditions,Clouds,dailyrainin,SolarRadiationWatts/m^2,SoftwareType,DateUTC
2013-02-08 00:02:00,32.7,30.6,30.16,SE,134,7.0,10.0,92,0.00,,OVC006,0.00,0.00,VWS V14.01,2013-02-08 06:02:00,
2013-02-08 00:08:00,32.7,30.6,30.16,East,93,5.0,6.0,92,0.00,,OVC006,0.00,0.00,VWS V14.01,2013-02-08 06:08:00,
2013-02-08 00:13:00,32.7,30.6,30.16,East,101,5.0,11.0,92,0.00,,OVC006,0.00,0.00,VWS V14.01,2013-02-08 06:13:00,
2013-02-08 00:18:00,32.7,30.6,30.16,ESE,108,6.0,11.0,92,0.00,,OVC006,0.00,0.00,VWS V14.01,2013-02-08 06:18:00,
2013-02-08 00:23:00,32.7,30.6,30.16,ENE,76,1.0,10.0,92,0.00,,OVC006,0.00,0.00,VWS V14.01,2013-02-08 06:23:00,
2013-02-08 00:28:00,32.7,30.6,30.17,ESE,115,1.0,11.0,92,0.00,,OVC006,0.00,0.00,VWS V14.01,2013-02-08 06:28:00,
2013-02-08 00:33:00,32.1,30.0,30.17,East,81,6.0,13.0,92,0.00,,OVC006,0.00,0.00,VWS V14.01,2013-02-08 06:33:00,
2013-02-08 00:38:00,31.8,29.8,30.17,ENE,65,5.0,12.0,92,0.00,,OVC006,0.00,0.00,VWS V14.01,2013-02-08 06:38:00,
2013-02-08 00:43:00,31.6,29.3,30.17,ESE,114,6.0,11.0,91,0.00,,OVC006,0.00,0.00,VWS V14.01,2013-02-08 06:43:00,
2013-02-08 00:48:00,31.6,29.3,30.18,East,98,9.0,9.0,91,0.00,,OVC006,0.00,0.00,VWS V14.01,2013-02-08 06:48:00,
2013-02-08 00:54:00,31.6,29.3,30.18,ENE,70,5.0,8.0,91,0.00,,OVC006,0.00,0.00,VWS V14.01,2013-02-08 06:54:00,
2013-02-08 01:00:00,31.6,29.3,30.18,ENE,78,5.0,11.0,91,0.00,,OVC006,0.00,0.00,VWS V14.01,2013-02-08 07:00:00,
2013-02-08 01:05:00,31.6,29.3,30.18,ENE,63,1.0,8.0,91,0.00,,OVC006,0.00,0.00,VWS V14.01,2013-02-08 07:05:00,
2013-02-08 01:10:00,31.6,29.3,30.18,ENE,74,4.0,7.0,91,0.00,,OVC006,0.00,0.00,VWS V14.01,2013-02-08 07:10:00,
2013-02-08 01:15:00,31.6,29.3,30.18,ENE,69,5.0,7.0,91,0.00,,OVC006,0.00,0.00,VWS V14.01,2013-02-08 07:15:00,
2013-02-08 01:20:00,31.5,29.2,30.18,East,90,8.0,12.0,91,0.00,,OVC006,0.00,0.00,VWS V14.01,2013-02-08 07:20:00,
2013-02-08 01:25:00,31.3,29.0,30.19,ENE,76,7.0,12.0,91,0.00,,OVC006,0.00,0.00,VWS V14.01,2013-02-08 07:25:00,
2013-02-08 01:30:00,31.3,29.0,30.19,East,80,4.0,12.0,91,0.00,,OVC006,0.00,0.00,VWS V14.01,2013-02-08 07:30:00,
2013-02-08 01:35:00,31.2,28.9,30.19,ENE,59,1.0,7.0,91,0.00,,OVC006,0.00,0.00,VWS V14.01,2013-02-08 07:35:00,
2013-02-08 01:40:00,31.2,28.9,30.20,ENE,68,7.0,12.0,91,0.00,,OVC006,0.00,0.00,VWS V14.01,2013-02-08 07:40:00,
2013-02-08 01:45:00,31.0,28.7,30.20,ENE,60,5.0,7.0,91,0.00,,OVC006,0.00,0.00,VWS V14.01,2013-02-08 07:45:00,
2013-02-08 01:50:00,30.9,28.6,30.21,ESE,108,14.0,14.0,91,0.00,,OVC006,0.00,0.00,VWS V14.01,2013-02-08 07:50:00,
2013-02-08 01:55:00,30.7,28.4,30.21,ENE,74,5.0,20.0,91,0.00,,OVC006,0.00,0.00,VWS V14.01,2013-02-08 07:55:00,
2013-02-08 02:00:00,30.7,28.4,30.21,ESE,120,6.0,8.0,91,0.00,,OVC006,0.00,0.00,VWS V14.01,2013-02-08 08:00:00,
2013-02-08 02:05:00,30.7,28.1,30.22,NE,53,14.0,14.0,90,0.00,,OVC006,0.00,0.00,VWS V14.01,2013-02-08 08:05:00,
2013-02-08 02:10:00,30.7,28.1,30.22,ESE,111,4.0,12.0,90,0.00,,OVC006,0.00,0.00,VWS V14.01,2013-02-08 08:10:00,
2013-02-08 02:16:00,30.7,28.1,30.22,ESE,105,4.0,5.0,90,0.00,,OVC006,0.00,0.00,VWS V14.01,2013-02-08 08:16:00,
2013-02-08 02:21:00,30.7,28.1,30.22,ENE,65,4.0,13.0,90,0.00,,OVC006,0.00,0.00,VWS V14.01,2013-02-08 08:21:00,
2013-02-08 02:26:00,30.7,28.1,30.22,ESE,105,7.0,7.0,90,0.00,,OVC006,0.00,0.00,VWS V14.01,2013-02-08 08:26:00,
2013-02-08 02:32:00,30.7,28.1,30.22,East,84,8.0,12.0,90,0.00,,OVC006,0.00,0.00,VWS V14.01,2013-02-08 08:32:00,
2013-02-08 02:38:00,30.6,27.8,30.23,East,90,8.0,11.0,89,0.00,,OVC006,0.00,0.00,VWS V14.01,2013-02-08 08:38:00,
2013-02-08 02:43:00,30.3,27.5,30.23,ESE,111,7.0,13.0,89,0.00,,OVC006,0.00,0.00,VWS V14.01,2013-02-08 08:43:00,
2013-02-08 02:48:00,30.3,27.5,30.23,East,90,6.0,12.0,89,0.00,,OVC006,0.00,0.00,VWS V14.01,2013-02-08 08:48:00,
2013-02-08 02:53:00,30.3,27.5,30.23,ENE,67,3.0,16.0,89,0.00,,OVC006,0.00,0.00,VWS V14.01,2013-02-08 08:53:00,
2013-02-08 02:58:00,30.3,27.5,30.24,ESE,118,9.0,13.0,89,0.00,,OVC006,0.00,0.00,VWS V14.01,2013-02-08 08:58:00,
2013-02-08 03:03:00,30.1,27.0,30.24,NE,54,4.0,17.0,88,0.00,,OVC006,0.00,0.00,VWS V14.01,2013-02-08 09:03:00,
2013-02-08 03:08:00,30.0,26.9,30.24,East,85,10.0,12.0,88,0.00,,OVC006,0.00,0.00,VWS V14.01,2013-02-08 09:08:00,
2013-02-08 03:14:00,29.5,26.4,30.24,East,97,7.0,10.0,88,0.00,,OVC006,0.00,0.00,VWS V14.01,2013-02-08 09:14:00,
2013-02-08 03:19:00,29.7,26.6,30.24,East,92,9.0,15.0,88,0.00,,OVC006,0.00,0.00,VWS V14.01,2013-02-08 09:19:00,
2013-02-08 03:24:00,29.7,26.6,30.24,East,94,6.0,9.0,88,0.00,,OVC006,0.00,0.00,VWS V14.01,2013-02-08 09:24:00,
2013-02-08 03:29:00,29.7,26.6,30.25,ENE,69,2.0,13.0,88,0.00,,OVC006,0.00,0.00,VWS V14.01,2013-02-08 09:29:00,
2013-02-08 03:34:00,29.4,26.3,30.25,East,98,5.0,14.0,88,0.00,,OVC006,0.00,0.00,VWS V14.01,2013-02-08 09:34:00,
2013-02-08 03:39:00,29.3,26.2,30.26,East,85,8.0,8.0,88,0.00,,OVC006,0.00,0.00,VWS V14.01,2013-02-08 09:39:00,
2013-02-08 03:44:00,29.3,26.2,30.26,East,100,8.0,14.0,88,0.00,,OVC006,0.00,0.00,VWS V14.01,2013-02-08 09:44:00,
2013-02-08 03:49:00,29.1,26.0,30.26,East,96,2.0,6.0,88,0.00,,OVC006,0.00,0.00,VWS V14.01,2013-02-08 09:49:00,
2013-02-08 03:54:00,29.1,26.0,30.27,ESE,116,6.0,7.0,88,0.00,,OVC006,0.00,0.00,VWS V14.01,2013-02-08 09:54:00,
2013-02-08 03:59:00,29.0,25.9,30.27,ENE,67,6.0,20.0,88,0.00,,OVC006,0.00,0.00,VWS V14.01,2013-02-08 09:59:00,
2013-02-08 04:05:00,28.8,25.7,30.27,NE,56,10.0,11.0,88,0.00,,OVC006,0.00,0.00,VWS V14.01,2013-02-08 10:05:00,
2013-02-08 04:11:00,28.7,25.9,30.28,East,99,6.0,19.0,89,0.00,,OVC006,0.00,0.00,VWS V14.01,2013-02-08 10:11:00,
2013-02-08 04:16:00,28.5,25.7,30.28,NE,49,2.0,5.0,89,0.00,,OVC006,0.00,0.00,VWS V14.01,2013-02-08 10:16:00,
2013-02-08 04:21:00,28.2,25.1,30.29,East,90,8.0,13.0,88,0.00,,OVC006,0.00,0.00,VWS V14.01,2013-02-08 10:21:00,
2013-02-08 04:26:00,27.9,24.8,30.29,SE,129,7.0,14.0,88,0.00,,OVC006,0.00,0.00,VWS V14.01,2013-02-08 10:26:00,
2013-02-08 04:31:00,27.6,24.5,30.29,ESE,117,6.0,8.0,88,0.00,,OVC006,0.00,0.00,VWS V14.01,2013-02-08 10:31:00,
2013-02-08 04:37:00,27.5,24.4,30.30,East,99,5.0,7.0,88,0.00,,OVC006,0.00,0.00,VWS V14.01,2013-02-08 10:37:00,
2013-02-08 04:42:00,27.5,24.4,30.30,ENE,71,5.0,13.0,88,0.00,,OVC006,0.00,0.00,VWS V14.01,2013-02-08 10:42:00,
2013-02-08 04:48:00,27.6,24.5,30.31,ESE,113,4.0,14.0,88,0.00,,OVC006,0.00,0.00,VWS V14.01,2013-02-08 10:48:00,
2013-02-08 04:53:00,27.5,24.4,30.31,ENE,78,14.0,14.0,88,0.00,,OVC006,0.00,0.00,VWS V14.01,2013-02-08 10:53:00,
2013-02-08 04:58:00,27.2,23.9,30.32,ENE,76,15.0,18.0,87,0.00,,OVC006,0.00,0.00,VWS V14.01,2013-02-08 10:58:00,
2013-02-08 05:03:00,27.2,23.9,30.32,East,94,5.0,8.0,87,0.00,,OVC012,0.00,0.00,VWS V14.01,2013-02-08 11:03:00,
2013-02-08 05:09:00,27.3,24.0,30.33,East,90,1.0,13.0,87,0.00,,OVC012,0.00,0.00,VWS V14.01,2013-02-08 11:09:00,
2013-02-08 05:14:00,27.0,23.4,30.33,East,95,16.0,18.0,86,0.00,,OVC012,0.00,0.00,VWS V14.01,2013-02-08 11:14:00,
2013-02-08 05:19:00,26.9,23.0,30.33,East,100,11.0,12.0,85,0.00,,OVC012,0.00,0.00,VWS V14.01,2013-02-08 11:19:00,
2013-02-08 05:24:00,26.7,22.8,30.34,East,101,8.0,16.0,85,0.00,,OVC012,0.00,0.00,VWS V14.01,2013-02-08 11:24:00,
2013-02-08 05:29:00,26.9,23.0,30.34,East,88,7.0,12.0,85,0.00,,OVC012,0.00,0.00,VWS V14.01,2013-02-08 11:29:00,
2013-02-08 05:34:00,27.0,23.1,30.34,East,86,12.0,13.0,85,0.00,,OVC012,0.00,0.00,VWS V14.01,2013-02-08 11:34:00,
2013-02-08 05:39:00,26.9,23.0,30.35,ENE,63,2.0,11.0,85,0.00,,OVC012,0.00,0.00,VWS V14.01,2013-02-08 11:39:00,
2013-02-08 05:45:00,26.9,23.0,30.35,ESE,103,13.0,13.0,85,0.00,,OVC012,0.00,0.00,VWS V14.01,2013-02-08 11:45:00,
2013-02-08 05:50:00,26.9,23.0,30.35,East,90,7.0,7.0,85,0.00,,OVC012,0.00,0.00,VWS V14.01,2013-02-08 11:50:00,
2013-02-08 05:55:00,26.7,22.8,30.35,NE,49,6.0,7.0,85,0.00,,OVC012,0.00,0.00,VWS V14.01,2013-02-08 11:55:00,
2013-02-08 06:01:00,26.4,22.2,30.35,East,85,4.0,8.0,84,0.00,,OVC010,0.00,0.00,VWS V14.01,2013-02-08 12:01:00,
2013-02-08 06:07:00,26.4,22.2,30.36,ESE,121,7.0,9.0,84,0.00,,OVC010,0.00,0.00,VWS V14.01,2013-02-08 12:07:00,
2013-02-08 06:12:00,26.4,22.2,30.36,ESE,108,2.0,7.0,84,0.00,,OVC010,0.00,0.00,VWS V14.01,2013-02-08 12:12:00,
2013-02-08 06:18:00,26.3,22.1,30.37,ESE,105,8.0,9.0,84,0.00,,OVC010,0.00,0.00,VWS V14.01,2013-02-08 12:18:00,
2013-02-08 06:23:00,26.1,21.9,30.38,East,97,11.0,11.0,84,0.00,,OVC010,0.00,0.00,VWS V14.01,2013-02-08 12:23:00,
2013-02-08 06:28:00,26.1,21.9,30.38,East,88,10.0,13.0,84,0.00,,OVC010,0.00,0.00,VWS V14.01,2013-02-08 12:28:00,
2013-02-08 06:33:00,25.7,21.3,30.38,East,88,4.0,11.0,83,0.00,,OVC010,0.00,0.00,VWS V14.01,2013-02-08 12:33:00,
2013-02-08 06:38:00,25.7,21.3,30.38,East,88,3.0,14.0,83,0.00,,OVC010,0.00,0.00,VWS V14.01,2013-02-08 12:38:00,
2013-02-08 06:43:00,25.7,21.3,30.39,East,84,3.0,14.0,83,0.00,,OVC010,0.00,0.00,VWS V14.01,2013-02-08 12:43:00,
2013-02-08 06:48:00,25.4,21.0,30.40,ENE,64,17.0,17.0,83,0.00,,OVC010,0.00,0.00,VWS V14.01,2013-02-08 12:48:00,
2013-02-08 06:54:00,25.4,21.0,30.40,East,79,11.0,18.0,83,0.00,,OVC010,0.00,0.00,VWS V14.01,2013-02-08 12:54:00,
2013-02-08 06:59:00,25.1,20.7,30.40,ESE,112,6.0,11.0,83,0.00,,OVC010,0.00,0.00,VWS V14.01,2013-02-08 12:59:00,
2013-02-08 07:04:00,25.0,20.6,30.41,East,81,3.0,13.0,83,0.00,,OVC010,0.00,0.00,VWS V14.01,2013-02-08 13:04:00,
2013-02-08 07:09:00,25.0,20.6,30.41,East,86,5.0,11.0,83,0.00,,OVC010,0.00,5.00,VWS V14.01,2013-02-08 13:09:00,
2013-02-08 07:14:00,25.0,20.6,30.41,ENE,66,7.0,12.0,83,0.00,,OVC010,0.00,7.00,VWS V14.01,2013-02-08 13:14:00,
2013-02-08 07:20:00,24.8,20.1,30.42,East,99,6.0,6.0,82,0.00,,OVC010,0.00,11.00,VWS V14.01,2013-02-08 13:20:00,
2013-02-08 07:25:00,24.7,20.0,30.42,ESE,105,4.0,15.0,82,0.00,,OVC010,0.00,14.00,VWS V14.01,2013-02-08 13:25:00,
2013-02-08 07:30:00,24.7,20.0,30.42,SE,128,9.0,14.0,82,0.00,,OVC010,0.00,19.00,VWS V14.01,2013-02-08 13:30:00,
2013-02-08 07:35:00,24.5,19.8,30.43,ESE,105,4.0,11.0,82,0.00,,OVC010,0.00,26.00,VWS V14.01,2013-02-08 13:35:00,
2013-02-08 07:40:00,24.5,19.8,30.43,ENE,57,7.0,15.0,82,0.00,,OVC010,0.00,28.00,VWS V14.01,2013-02-08 13:40:00,
2013-02-08 07:45:00,24.4,19.7,30.44,ESE,107,4.0,12.0,82,0.00,,OVC010,0.00,35.00,VWS V14.01,2013-02-08 13:45:00,
2013-02-08 07:51:00,24.4,20.0,30.44,East,80,7.0,11.0,83,0.00,,OVC010,0.00,30.00,VWS V14.01,2013-02-08 13:51:00,
2013-02-08 07:57:00,24.4,20.0,30.45,ENE,76,8.0,13.0,83,0.00,,OVC010,0.00,32.00,VWS V14.01,2013-02-08 13:57:00,
2013-02-08 08:02:00,24.1,19.7,30.46,ESE,102,15.0,15.0,83,0.00,,OVC010,0.00,39.00,VWS V14.01,2013-02-08 14:02:00,
2013-02-08 08:07:00,23.9,19.5,30.46,East,92,2.0,12.0,83,0.00,,OVC010,0.00,42.00,VWS V14.01,2013-02-08 14:07:00,
2013-02-08 08:12:00,23.9,19.5,30.46,ESE,105,7.0,9.0,83,0.00,,OVC010,0.00,51.00,VWS V14.01,2013-02-08 14:12:00,
2013-02-08 08:18:00,24.1,20.0,30.46,SE,135,13.0,14.0,84,0.00,,OVC010,0.00,47.00,VWS V14.01,2013-02-08 14:18:00,
2013-02-08 08:23:00,23.8,19.4,30.46,ESE,107,12.0,18.0,83,0.00,,OVC010,0.00,51.00,VWS V14.01,2013-02-08 14:23:00,
2013-02-08 08:28:00,23.9,19.8,30.46,NE,55,5.0,14.0,84,0.00,,OVC010,0.00,54.00,VWS V14.01,2013-02-08 14:28:00,
2013-02-08 08:34:00,23.9,19.8,30.47,ESE,113,8.0,8.0,84,0.00,,OVC010,0.00,67.00,VWS V14.01,2013-02-08 14:34:00,
2013-02-08 08:40:00,24.2,20.1,30.47,East,91,6.0,11.0,84,0.00,,OVC010,0.00,67.00,VWS V14.01,2013-02-08 14:40:00,
2013-02-08 08:45:00,24.4,20.3,30.47,SE,128,8.0,11.0,84,0.00,,OVC010,0.00,67.00,VWS V14.01,2013-02-08 14:45:00,
2013-02-08 08:51:00,24.5,20.4,30.47,ESE,109,7.0,13.0,84,0.00,,OVC010,0.00,83.00,VWS V14.01,2013-02-08 14:51:00,
2013-02-08 08:56:00,24.5,20.4,30.48,SE,129,9.0,14.0,84,0.00,,OVC010,0.00,81.00,VWS V14.01,2013-02-08 14:56:00,
2013-02-08 09:01:00,24.5,20.4,30.48,East,88,12.0,15.0,84,0.00,,OVC010,0.00,69.00,VWS V14.01,2013-02-08 15:01:00,
2013-02-08 09:07:00,24.7,20.6,30.49,ESE,118,7.0,16.0,84,0.00,,OVC010,0.00,65.00,VWS V14.01,2013-02-08 15:07:00,
2013-02-08 09:12:00,24.8,20.7,30.49,SE,138,17.0,19.0,84,0.00,,OVC010,0.00,72.00,VWS V14.01,2013-02-08 15:12:00,
2013-02-08 09:17:00,25.0,20.9,30.49,East,79,4.0,11.0,84,0.00,,OVC010,0.00,69.00,VWS V14.01,2013-02-08 15:17:00,
2013-02-08 09:23:00,25.1,21.0,30.50,SE,127,8.0,13.0,84,0.00,,OVC010,0.00,84.00,VWS V14.01,2013-02-08 15:23:00,
2013-02-08 09:28:00,25.1,20.7,30.50,ESE,115,5.0,13.0,83,0.00,,OVC010,0.00,84.00,VWS V14.01,2013-02-08 15:28:00,
2013-02-08 09:33:00,25.3,20.9,30.50,ESE,119,14.0,17.0,83,0.00,,OVC010,0.00,81.00,VWS V14.01,2013-02-08 15:33:00,
2013-02-08 09:38:00,25.4,21.0,30.50,East,100,9.0,11.0,83,0.00,,OVC010,0.00,90.00,VWS V14.01,2013-02-08 15:38:00,
2013-02-08 09:43:00,25.4,21.0,30.51,ESE,117,9.0,11.0,83,0.00,,OVC010,0.00,95.00,VWS V14.01,2013-02-08 15:43:00,
2013-02-08 09:48:00,25.6,21.2,30.51,ESE,109,9.0,11.0,83,0.00,,OVC010,0.00,91.00,VWS V14.01,2013-02-08 15:48:00,
2013-02-08 09:54:00,25.6,20.9,30.51,East,95,8.0,14.0,82,0.00,,OVC010,0.00,109.00,VWS V14.01,2013-02-08 15:54:00,
2013-02-08 09:59:00,25.6,21.2,30.51,East,94,14.0,14.0,83,0.00,,OVC010,0.00,100.00,VWS V14.01,2013-02-08 15:59:00,
2013-02-08 10:04:00,25.7,21.3,30.51,East,88,3.0,6.0,83,0.00,,OVC010,0.00,121.00,VWS V14.01,2013-02-08 16:04:00,
2013-02-08 10:09:00,25.7,21.0,30.51,East,85,6.0,8.0,82,0.00,,OVC010,0.00,127.00,VWS V14.01,2013-02-08 16:09:00,
2013-02-08 10:14:00,25.8,21.1,30.51,East,94,6.0,13.0,82,0.00,,OVC010,0.00,169.00,VWS V14.01,2013-02-08 16:14:00,
2013-02-08 10:20:00,26.0,21.3,30.51,East,82,2.0,12.0,82,0.00,,OVC010,0.00,204.00,VWS V14.01,2013-02-08 16:20:00,
2013-02-08 10:25:00,26.1,21.4,30.51,East,92,5.0,9.0,82,0.00,,OVC010,0.00,225.00,VWS V14.01,2013-02-08 16:25:00,
2013-02-08 10:31:00,26.3,21.6,30.51,East,88,12.0,12.0,82,0.00,,OVC010,0.00,209.00,VWS V14.01,2013-02-08 16:31:00,
2013-02-08 10:36:00,26.3,21.6,30.51,SE,126,4.0,10.0,82,0.00,,OVC010,0.00,185.00,VWS V14.01,2013-02-08 16:36:00,
2013-02-08 10:41:00,26.3,21.6,30.51,ENE,72,7.0,8.0,82,0.00,,OVC010,0.00,163.00,VWS V14.01,2013-02-08 16:41:00,
2013-02-08 10:46:00,26.1,21.1,30.51,East,91,9.0,11.0,81,0.00,,OVC010,0.00,213.00,VWS V14.01,2013-02-08 16:46:00,
2013-02-08 10:52:00,26.4,21.7,30.51,East,96,6.0,14.0,82,0.00,,OVC010,0.00,229.00,VWS V14.01,2013-02-08 16:52:00,
2013-02-08 10:57:00,26.4,21.4,30.51,East,86,5.0,5.0,81,0.00,,OVC010,0.00,185.00,VWS V14.01,2013-02-08 16:57:00,
2013-02-08 11:02:00,26.6,21.6,30.52,ESE,103,8.0,12.0,81,0.00,,OVC010,0.00,169.00,VWS V14.01,2013-02-08 17:02:00,
2013-02-08 11:07:00,26.7,21.7,30.52,SE,127,9.0,11.0,81,0.00,,OVC010,0.00,190.00,VWS V14.01,2013-02-08 17:07:00,
2013-02-08 11:13:00,26.6,21.6,30.52,ESE,103,8.0,11.0,81,0.00,,OVC010,0.00,186.00,VWS V14.01,2013-02-08 17:13:00,
2013-02-08 11:19:00,26.7,21.7,30.52,ENE,65,4.0,6.0,81,0.00,,OVC010,0.00,299.00,VWS V14.01,2013-02-08 17:19:00,
2013-02-08 11:25:00,27.0,22.0,30.53,ENE,60,6.0,8.0,81,0.00,,OVC010,0.00,204.00,VWS V14.01,2013-02-08 17:25:00,
2013-02-08 11:31:00,26.9,21.9,30.53,East,90,8.0,8.0,81,0.00,,OVC010,0.00,165.00,VWS V14.01,2013-02-08 17:31:00,
2013-02-08 11:36:00,26.9,21.9,30.53,ENE,58,2.0,8.0,81,0.00,,OVC010,0.00,163.00,VWS V14.01,2013-02-08 17:36:00,
2013-02-08 11:42:00,27.0,22.0,30.53,ENE,76,7.0,7.0,81,0.00,,OVC010,0.00,204.00,VWS V14.01,2013-02-08 17:42:00,
2013-02-08 11:47:00,27.0,22.0,30.53,East,82,4.0,11.0,81,0.00,,OVC010,0.00,188.00,VWS V14.01,2013-02-08 17:47:00,
2013-02-08 11:52:00,27.2,22.1,30.53,ESE,104,8.0,8.0,81,0.00,,OVC010,0.00,186.00,VWS V14.01,2013-02-08 17:52:00,
2013-02-08 11:57:00,27.3,22.2,30.53,ESE,105,4.0,6.0,81,0.00,,OVC010,0.00,200.00,VWS V14.01,2013-02-08 17:57:00,
2013-02-08 12:02:00,27.5,22.1,30.52,East,86,4.0,9.0,80,0.00,,OVC010,0.00,271.00,VWS V14.01,2013-02-08 18:02:00,
2013-02-08 12:07:00,27.5,22.1,30.52,NE,46,6.0,10.0,80,0.00,,OVC010,0.00,225.00,VWS V14.01,2013-02-08 18:07:00,
2013-02-08 12:12:00,27.8,22.7,30.53,ENE,64,5.0,6.0,81,0.00,,OVC010,0.00,176.00,VWS V14.01,2013-02-08 18:12:00,
2013-02-08 12:17:00,27.8,22.4,30.53,East,86,7.0,10.0,80,0.00,,OVC010,0.00,172.00,VWS V14.01,2013-02-08 18:17:00,
2013-02-08 12:22:00,27.6,22.2,30.53,ENE,78,2.0,4.0,80,0.00,,OVC010,0.00,239.00,VWS V14.01,2013-02-08 18:22:00,
2013-02-08 12:28:00,27.8,22.4,30.53,East,81,4.0,6.0,80,0.00,,OVC010,0.00,250.00,VWS V14.01,2013-02-08 18:28:00,
2013-02-08 12:34:00,28.1,22.7,30.53,East,82,5.0,8.0,80,0.00,,OVC010,0.00,218.00,VWS V14.01,2013-02-08 18:34:00,
2013-02-08 12:39:00,28.1,22.7,30.54,ENE,57,4.0,4.0,80,0.00,,OVC010,0.00,209.00,VWS V14.01,2013-02-08 18:39:00,
2013-02-08 12:44:00,28.1,22.7,30.54,ENE,59,7.0,13.0,80,0.00,,OVC010,0.00,207.00,VWS V14.01,2013-02-08 18:44:00,
2013-02-08 12:49:00,27.8,22.1,30.53,East,98,2.0,8.0,79,0.00,,OVC010,0.00,206.00,VWS V14.01,2013-02-08 18:49:00,
2013-02-08 12:55:00,27.9,22.5,30.53,East,84,0.0,8.0,80,0.00,,OVC010,0.00,209.00,VWS V14.01,2013-02-08 18:55:00,
2013-02-08 13:01:00,28.4,23.0,30.53,East,99,4.0,4.0,80,0.00,,OVC010,0.00,186.00,VWS V14.01,2013-02-08 19:01:00,
2013-02-08 13:06:00,28.2,22.5,30.53,East,88,4.0,9.0,79,0.00,,OVC010,0.00,202.00,VWS V14.01,2013-02-08 19:06:00,
2013-02-08 13:11:00,28.2,22.5,30.53,East,94,6.0,7.0,79,0.00,,OVC010,0.00,214.00,VWS V14.01,2013-02-08 19:11:00,
2013-02-08 13:16:00,28.2,22.5,30.53,East,95,4.0,7.0,79,0.00,,OVC010,0.00,206.00,VWS V14.01,2013-02-08 19:16:00,
2013-02-08 13:21:00,28.2,22.5,30.53,ENE,69,5.0,7.0,79,0.00,,OVC010,0.00,185.00,VWS V14.01,2013-02-08 19:21:00,
2013-02-08 13:26:00,28.4,22.7,30.53,ESE,113,4.0,7.0,79,0.00,,OVC010,0.00,183.00,VWS V14.01,2013-02-08 19:26:00,
2013-02-08 13:31:00,28.2,22.5,30.53,NE,55,6.0,9.0,79,0.00,,OVC010,0.00,183.00,VWS V14.01,2013-02-08 19:31:00,
2013-02-08 13:36:00,28.4,22.7,30.54,ESE,102,4.0,4.0,79,0.00,,OVC010,0.00,176.00,VWS V14.01,2013-02-08 19:36:00,
2013-02-08 13:41:00,28.4,22.7,30.54,ENE,70,7.0,8.0,79,0.00,,OVC010,0.00,153.00,VWS V14.01,2013-02-08 19:41:00,
2013-02-08 13:47:00,28.2,22.5,30.54,ENE,66,4.0,8.0,79,0.00,,OVC010,0.00,183.00,VWS V14.01,2013-02-08 19:47:00,
2013-02-08 13:52:00,28.4,22.7,30.54,ENE,67,5.0,7.0,79,0.00,,OVC010,0.00,169.00,VWS V14.01,2013-02-08 19:52:00,
2013-02-08 13:58:00,28.5,22.8,30.54,NE,46,4.0,6.0,79,0.00,,OVC010,0.00,151.00,VWS V14.01,2013-02-08 19:58:00,
2013-02-08 14:03:00,28.7,23.0,30.54,ENE,69,2.0,3.0,79,0.00,,OVC010,0.00,160.00,VWS V14.01,2013-02-08 20:03:00,
2013-02-08 14:08:00,28.5,22.8,30.55,NE,54,3.0,7.0,79,0.00,,OVC010,0.00,139.00,VWS V14.01,2013-02-08 20:08:00,
2013-02-08 14:13:00,28.8,23.1,30.55,East,99,5.0,5.0,79,0.00,,OVC010,0.00,132.00,VWS V14.01,2013-02-08 20:13:00,
2013-02-08 14:18:00,29.0,23.3,30.55,ENE,65,7.0,7.0,79,0.00,,OVC010,0.00,144.00,VWS V14.01,2013-02-08 20:18:00,
2013-02-08 14:23:00,29.0,23.3,30.55,NE,54,2.0,6.0,79,0.00,,OVC010,0.00,160.00,VWS V14.01,2013-02-08 20:23:00,
2013-02-08 14:28:00,29.0,23.3,30.55,East,98,0.0,5.0,79,0.00,,OVC010,0.00,218.00,VWS V14.01,2013-02-08 20:28:00,
2013-02-08 14:33:00,29.0,23.3,30.55,ENE,67,6.0,8.0,79,0.00,,OVC010,0.00,186.00,VWS V14.01,2013-02-08 20:33:00,
2013-02-08 14:38:00,29.1,23.4,30.55,NE,46,4.0,5.0,79,0.00,,OVC010,0.00,162.00,VWS V14.01,2013-02-08 20:38:00,
2013-02-08 14:44:00,29.0,23.0,30.55,ENE,61,4.0,8.0,78,0.00,,OVC010,0.00,153.00,VWS V14.01,2013-02-08 20:44:00,
2013-02-08 14:49:00,29.0,23.0,30.55,NE,51,4.0,6.0,78,0.00,,OVC010,0.00,163.00,VWS V14.01,2013-02-08 20:49:00,
2013-02-08 14:54:00,29.0,23.3,30.55,ENE,61,4.0,5.0,79,0.00,,OVC010,0.00,125.00,VWS V14.01,2013-02-08 20:54:00,
2013-02-08 14:59:00,28.8,22.8,30.55,East,100,8.0,8.0,78,0.00,,OVC010,0.00,102.00,VWS V14.01,2013-02-08 20:59:00,
2013-02-08 15:04:00,28.8,23.1,30.55,NE,46,5.0,7.0,79,0.00,,OVC012,0.00,113.00,VWS V14.01,2013-02-08 21:04:00,
2013-02-08 15:09:00,28.8,23.1,30.55,East,89,4.0,5.0,79,0.00,,OVC012,0.00,100.00,VWS V14.01,2013-02-08 21:09:00,
2013-02-08 15:14:00,28.7,23.0,30.56,ENE,62,3.0,5.0,79,0.00,,OVC012,0.00,83.00,VWS V14.01,2013-02-08 21:14:00,
2013-02-08 15:19:00,28.8,23.1,30.56,ENE,67,2.0,5.0,79,0.00,,OVC012,0.00,67.00,VWS V14.01,2013-02-08 21:19:00,
2013-02-08 15:24:00,28.7,22.7,30.56,East,86,2.0,4.0,78,0.00,,OVC012,0.00,63.00,VWS V14.01,2013-02-08 21:24:00,
2013-02-08 15:29:00,28.7,22.7,30.56,East,83,3.0,7.0,78,0.00,,OVC012,0.00,63.00,VWS V14.01,2013-02-08 21:29:00,
2013-02-08 15:34:00,28.7,22.7,30.56,East,86,3.0,3.0,78,0.00,,OVC012,0.00,58.00,VWS V14.01,2013-02-08 21:34:00,
2013-02-08 15:40:00,28.7,22.7,30.57,East,91,4.0,6.0,78,0.00,,OVC012,0.00,47.00,VWS V14.01,2013-02-08 21:40:00,
2013-02-08 15:45:00,28.7,22.7,30.56,East,99,4.0,6.0,78,0.00,,OVC012,0.00,49.00,VWS V14.01,2013-02-08 21:45:00,
2013-02-08 15:50:00,28.7,22.7,30.56,East,99,1.0,2.0,78,0.00,,OVC012,0.00,46.00,VWS V14.01,2013-02-08 21:50:00,
2013-02-08 15:55:00,28.5,22.5,30.56,ESE,116,4.0,7.0,78,0.00,,OVC012,0.00,63.00,VWS V14.01,2013-02-08 21:55:00,
2013-02-08 16:00:00,28.7,22.7,30.57,East,85,2.0,5.0,78,0.00,,OVC012,0.00,67.00,VWS V14.01,2013-02-08 22:00:00,
2013-02-08 16:05:00,28.7,22.7,30.56,NE,52,4.0,7.0,78,0.00,,OVC012,0.00,42.00,VWS V14.01,2013-02-08 22:05:00,
2013-02-08 16:10:00,28.7,22.7,30.57,East,90,4.0,6.0,78,0.00,,OVC012,0.00,39.00,VWS V14.01,2013-02-08 22:10:00,
2013-02-08 16:15:00,28.7,22.7,30.57,ENE,64,1.0,5.0,78,0.00,,OVC012,0.00,42.00,VWS V14.01,2013-02-08 22:15:00,
2013-02-08 16:20:00,28.5,22.5,30.58,ENE,72,0.0,3.0,78,0.00,,OVC012,0.00,33.00,VWS V14.01,2013-02-08 22:20:00,
2013-02-08 16:26:00,28.7,22.7,30.58,ESE,116,6.0,8.0,78,0.00,,OVC012,0.00,32.00,VWS V14.01,2013-02-08 22:26:00,
2013-02-08 16:32:00,28.5,22.5,30.58,ESE,110,5.0,8.0,78,0.00,,OVC012,0.00,25.00,VWS V14.01,2013-02-08 22:32:00,
2013-02-08 16:37:00,28.4,22.4,30.58,East,101,4.0,5.0,78,0.00,,OVC012,0.00,23.00,VWS V14.01,2013-02-08 22:37:00,
2013-02-08 16:42:00,28.4,22.1,30.58,ESE,106,2.0,6.0,77,0.00,,OVC012,0.00,19.00,VWS V14.01,2013-02-08 22:42:00,
2013-02-08 16:47:00,28.4,22.1,30.59,ESE,106,1.0,5.0,77,0.00,,OVC012,0.00,18.00,VWS V14.01,2013-02-08 22:47:00,
2013-02-08 16:52:00,28.4,22.1,30.59,ESE,106,0.0,4.0,77,0.00,,OVC012,0.00,11.00,VWS V14.01,2013-02-08 22:52:00,
2013-02-08 16:57:00,28.4,22.1,30.59,ESE,106,2.0,2.0,77,0.00,,OVC012,0.00,7.00,VWS V14.01,2013-02-08 22:57:00,
2013-02-08 17:02:00,28.4,22.1,30.59,East,98,2.0,5.0,77,0.00,,OVC014,0.00,7.00,VWS V14.01,2013-02-08 23:02:00,
2013-02-08 17:07:00,28.4,22.1,30.59,East,98,2.0,2.0,77,0.00,,OVC014,0.00,5.00,VWS V14.01,2013-02-08 23:07:00,
2013-02-08 17:12:00,28.2,22.2,30.59,East,94,1.0,1.0,78,0.00,,OVC014,0.00,0.00,VWS V14.01,2013-02-08 23:12:00,
2013-02-08 17:17:00,28.2,22.2,30.59,East,90,5.0,6.0,78,0.00,,OVC014,0.00,0.00,VWS V14.01,2013-02-08 23:17:00,
2013-02-08 17:22:00,28.1,22.1,30.59,East,86,2.0,3.0,78,0.00,,OVC014,0.00,0.00,VWS V14.01,2013-02-08 23:22:00,
2013-02-08 17:27:00,28.1,22.1,30.60,East,87,2.0,2.0,78,0.00,,OVC014,0.00,0.00,VWS V14.01,2013-02-08 23:27:00,
2013-02-08 17:33:00,27.9,21.9,30.60,East,90,0.0,4.0,78,0.00,,OVC014,0.00,0.00,VWS V14.01,2013-02-08 23:33:00,
2013-02-08 17:38:00,27.9,21.9,30.60,East,90,4.0,4.0,78,0.00,,OVC014,0.00,0.00,VWS V14.01,2013-02-08 23:38:00,
2013-02-08 17:43:00,27.9,21.9,30.60,East,90,2.0,4.0,78,0.00,,OVC014,0.00,0.00,VWS V14.01,2013-02-08 23:43:00,
2013-02-08 17:48:00,27.9,21.9,30.60,East,90,1.0,5.0,78,0.00,,OVC014,0.00,0.00,VWS V14.01,2013-02-08 23:48:00,
2013-02-08 17:53:00,27.9,21.9,30.59,East,90,2.0,2.0,78,0.00,,OVC014,0.00,0.00,VWS V14.01,2013-02-08 23:53:00,
2013-02-08 17:58:00,27.9,21.9,30.59,East,90,2.0,2.0,78,0.00,,OVC014,0.00,0.00,VWS V14.01,2013-02-08 23:58:00,
2013-02-08 18:03:00,27.9,21.9,30.59,East,90,0.0,4.0,78,0.00,,OVC014,0.00,0.00,VWS V14.01,2013-02-09 00:03:00,
2013-02-08 18:08:00,27.9,21.9,30.60,East,90,1.0,4.0,78,0.00,,OVC014,0.00,0.00,VWS V14.01,2013-02-09 00:08:00,
2013-02-08 18:13:00,27.9,22.2,30.60,East,90,0.0,0.0,79,0.00,,OVC014,0.00,0.00,VWS V14.01,2013-02-09 00:13:00,
2013-02-08 18:18:00,27.9,22.2,30.60,East,90,0.0,0.0,79,0.00,,OVC014,0.00,0.00,VWS V14.01,2013-02-09 00:18:00,
2013-02-08 18:24:00,27.9,22.2,30.61,East,90,4.0,4.0,79,0.00,,OVC014,0.00,0.00,VWS V14.01,2013-02-09 00:24:00,
2013-02-08 18:29:00,27.8,21.9,30.61,East,90,2.0,2.0,78,0.00,,OVC014,0.00,0.00,VWS V14.01,2013-02-09 00:29:00,
2013-02-08 18:34:00,27.8,21.9,30.61,ENE,74,0.0,3.0,78,0.00,,OVC014,0.00,0.00,VWS V14.01,2013-02-09 00:34:00,
2013-02-08 18:39:00,27.6,21.6,30.61,ENE,75,2.0,3.0,78,0.00,,OVC014,0.00,0.00,VWS V14.01,2013-02-09 00:39:00,
2013-02-08 18:45:00,27.6,21.6,30.61,ENE,75,0.0,0.0,78,0.00,,OVC014,0.00,0.00,VWS V14.01,2013-02-09 00:45:00,
2013-02-08 18:50:00,27.6,21.6,30.61,ENE,75,0.0,0.0,78,0.00,,OVC014,0.00,0.00,VWS V14.01,2013-02-09 00:50:00,
2013-02-08 18:55:00,27.6,21.6,30.61,ENE,75,0.0,0.0,78,0.00,,OVC014,0.00,0.00,VWS V14.01,2013-02-09 00:55:00,
2013-02-08 19:00:00,27.6,21.6,30.61,ENE,75,0.0,1.0,78,0.00,,OVC014,0.00,0.00,VWS V14.01,2013-02-09 01:00:00,
2013-02-08 19:06:00,27.6,21.6,30.61,ENE,75,4.0,4.0,78,0.00,,OVC014,0.00,0.00,VWS V14.01,2013-02-09 01:06:00,
2013-02-08 19:11:00,27.5,21.5,30.61,SSE,153,4.0,5.0,78,0.00,,OVC014,0.00,0.00,VWS V14.01,2013-02-09 01:11:00,
2013-02-08 19:16:00,27.5,21.5,30.60,SSE,153,0.0,2.0,78,0.00,,OVC014,0.00,0.00,VWS V14.01,2013-02-09 01:16:00,
2013-02-08 19:21:00,27.5,21.5,30.60,SSE,153,4.0,4.0,78,0.00,,OVC014,0.00,0.00,VWS V14.01,2013-02-09 01:21:00,
2013-02-08 19:27:00,27.5,21.5,30.60,SSE,153,0.0,2.0,78,0.00,,OVC014,0.00,0.00,VWS V14.01,2013-02-09 01:27:00,
2013-02-08 19:32:00,27.5,21.9,30.59,SSE,153,4.0,4.0,79,0.00,,OVC014,0.00,0.00,VWS V14.01,2013-02-09 01:32:00,
2013-02-08 19:37:00,27.5,21.9,30.59,SE,142,1.0,4.0,79,0.00,,OVC014,0.00,0.00,VWS V14.01,2013-02-09 01:37:00,
2013-02-08 19:42:00,27.5,21.9,30.59,SE,129,7.0,8.0,79,0.00,,OVC014,0.00,0.00,VWS V14.01,2013-02-09 01:42:00,
2013-02-08 19:47:00,27.5,21.9,30.59,SE,127,6.0,7.0,79,0.00,,OVC014,0.00,0.00,VWS V14.01,2013-02-09 01:47:00,
2013-02-08 19:52:00,27.3,21.7,30.59,SE,127,2.0,2.0,79,0.00,,OVC014,0.00,0.00,VWS V14.01,2013-02-09 01:52:00,
2013-02-08 19:57:00,27.3,21.7,30.60,South,169,2.0,2.0,79,0.00,,OVC014,0.00,0.00,VWS V14.01,2013-02-09 01:57:00,
2013-02-08 20:02:00,27.3,21.7,30.60,South,169,2.0,5.0,79,0.00,,OVC014,0.00,0.00,VWS V14.01,2013-02-09 02:02:00,
2013-02-08 20:07:00,27.3,21.7,30.60,South,169,4.0,4.0,79,0.00,,OVC014,0.00,0.00,VWS V14.01,2013-02-09 02:07:00,
2013-02-08 20:12:00,27.3,21.7,30.60,South,169,4.0,4.0,79,0.00,,OVC014,0.00,0.00,VWS V14.01,2013-02-09 02:12:00,
2013-02-08 20:17:00,27.3,21.4,30.61,South,169,0.0,0.0,78,0.00,,OVC014,0.00,0.00,VWS V14.01,2013-02-09 02:17:00,
2013-02-08 20:22:00,27.3,21.4,30.61,South,169,1.0,5.0,78,0.00,,OVC014,0.00,0.00,VWS V14.01,2013-02-09 02:22:00,
2013-02-08 20:27:00,27.2,21.3,30.61,South,169,0.0,2.0,78,0.00,,OVC014,0.00,0.00,VWS V14.01,2013-02-09 02:27:00,
2013-02-08 20:32:00,27.3,21.7,30.61,South,169,4.0,4.0,79,0.00,,OVC014,0.00,0.00,VWS V14.01,2013-02-09 02:32:00,
2013-02-08 20:37:00,27.3,21.4,30.61,South,169,2.0,5.0,78,0.00,,OVC014,0.00,0.00,VWS V14.01,2013-02-09 02:37:00,
2013-02-08 20:42:00,27.2,21.3,30.62,South,169,1.0,5.0,78,0.00,,OVC014,0.00,0.00,VWS V14.01,2013-02-09 02:42:00,
2013-02-08 20:47:00,27.2,21.3,30.62,South,169,0.0,2.0,78,0.00,,OVC014,0.00,0.00,VWS V14.01,2013-02-09 02:47:00,
2013-02-08 20:52:00,27.2,21.3,30.61,South,169,2.0,5.0,78,0.00,,OVC014,0.00,0.00,VWS V14.01,2013-02-09 02:52:00,
2013-02-08 20:57:00,27.2,21.3,30.62,SSE,167,1.0,5.0,78,0.00,,OVC014,0.00,0.00,VWS V14.01,2013-02-09 02:57:00,
2013-02-08 21:03:00,27.0,21.1,30.62,SSE,167,0.0,0.0,78,0.00,,OVC014,0.00,0.00,VWS V14.01,2013-02-09 03:03:00,
2013-02-08 21:08:00,27.0,21.1,30.62,SSE,167,0.0,0.0,78,0.00,,OVC014,0.00,0.00,VWS V14.01,2013-02-09 03:08:00,
2013-02-08 21:13:00,27.0,21.1,30.62,SSE,167,2.0,2.0,78,0.00,,OVC014,0.00,0.00,VWS V14.01,2013-02-09 03:13:00,
2013-02-08 21:18:00,27.2,21.3,30.62,SSE,167,2.0,6.0,78,0.00,,OVC014,0.00,0.00,VWS V14.01,2013-02-09 03:18:00,
2013-02-08 21:24:00,27.2,21.3,30.62,SSE,167,2.0,4.0,78,0.00,,OVC014,0.00,0.00,VWS V14.01,2013-02-09 03:24:00,
2013-02-08 21:29:00,27.2,21.3,30.62,SSE,167,1.0,4.0,78,0.00,,OVC014,0.00,0.00,VWS V14.01,2013-02-09 03:29:00,
2013-02-08 21:34:00,27.2,21.3,30.62,SSE,167,0.0,0.0,78,0.00,,OVC014,0.00,0.00,VWS V14.01,2013-02-09 03:34:00,
2013-02-08 21:40:00,27.2,21.3,30.62,SSE,167,0.0,0.0,78,0.00,,OVC014,0.00,0.00,VWS V14.01,2013-02-09 03:40:00,
2013-02-08 21:45:00,27.2,21.3,30.62,SSE,167,2.0,4.0,78,0.00,,OVC014,0.00,0.00,VWS V14.01,2013-02-09 03:45:00,
2013-02-08 21:50:00,27.2,21.3,30.62,SSE,167,2.0,4.0,78,0.00,,OVC014,0.00,0.00,VWS V14.01,2013-02-09 03:50:00,
2013-02-08 21:55:00,27.2,21.6,30.62,SSW,210,2.0,6.0,79,0.00,,OVC014,0.00,0.00,VWS V14.01,2013-02-09 03:55:00,
2013-02-08 22:00:00,27.2,21.6,30.62,SSW,211,2.0,5.0,79,0.00,,OVC014,0.00,0.00,VWS V14.01,2013-02-09 04:00:00,
2013-02-08 22:05:00,27.3,21.7,30.62,SSW,211,2.0,3.0,79,0.00,,OVC014,0.00,0.00,VWS V14.01,2013-02-09 04:05:00,
2013-02-08 22:10:00,27.5,21.9,30.62,SSW,211,0.0,0.0,79,0.00,,OVC014,0.00,0.00,VWS V14.01,2013-02-09 04:10:00,
2013-02-08 22:15:00,27.5,21.9,30.61,SSW,211,2.0,2.0,79,0.00,,OVC014,0.00,0.00,VWS V14.01,2013-02-09 04:15:00,
2013-02-08 22:20:00,27.5,21.9,30.61,SSW,211,0.0,1.0,79,0.00,,OVC014,0.00,0.00,VWS V14.01,2013-02-09 04:20:00,
2013-02-08 22:25:00,27.5,21.9,30.61,SSW,213,3.0,5.0,79,0.00,,OVC014,0.00,0.00,VWS V14.01,2013-02-09 04:25:00,
2013-02-08 22:30:00,27.3,21.7,30.62,SSW,213,0.0,2.0,79,0.00,,OVC014,0.00,0.00,VWS V14.01,2013-02-09 04:30:00,
2013-02-08 22:35:00,27.2,21.6,30.62,SSW,213,1.0,4.0,79,0.00,,OVC014,0.00,0.00,VWS V14.01,2013-02-09 04:35:00,
2013-02-08 22:40:00,27.3,21.7,30.62,SSW,213,3.0,3.0,79,0.00,,OVC014,0.00,0.00,VWS V14.01,2013-02-09 04:40:00,
2013-02-08 22:46:00,27.3,21.7,30.62,SSW,213,0.0,0.0,79,0.00,,OVC014,0.00,0.00,VWS V14.01,2013-02-09 04:46:00,
2013-02-08 22:51:00,27.2,21.6,30.62,SSW,213,0.0,1.0,79,0.00,,OVC014,0.00,0.00,VWS V14.01,2013-02-09 04:51:00,
2013-02-08 22:57:00,27.3,21.7,30.62,SSW,200,3.0,5.0,79,0.00,,OVC014,0.00,0.00,VWS V14.01,2013-02-09 04:57:00,
2013-02-08 23:00:00,27.3,21.7,30.62,SSW,200,1.0,3.0,79,0.00,,OVC012,0.00,0.00,VWS V14.01,2013-02-09 05:00:00,
2013-02-08 23:01:00,27.3,21.7,30.62,SSW,200,1.0,4.0,79,0.00,,OVC012,0.00,0.00,VWS V14.01,2013-02-09 05:01:00,
2013-02-08 23:02:00,27.3,21.7,30.62,SSW,200,2.0,3.0,79,0.00,,OVC012,0.00,0.00,VWS V14.01,2013-02-09 05:02:00,
2013-02-08 23:07:00,27.3,21.7,30.62,SSW,202,5.0,5.0,79,0.00,,OVC012,0.00,0.00,VWS V14.01,2013-02-09 05:07:00,
2013-02-08 23:11:00,27.3,21.7,30.63,SSW,202,2.0,4.0,79,0.00,,OVC012,0.00,0.00,VWS V14.01,2013-02-09 05:11:00,
2013-02-08 23:16:00,27.3,21.7,30.63,SSW,201,0.0,2.0,79,0.00,,OVC012,0.00,0.00,VWS V14.01,2013-02-09 05:16:00,
2013-02-08 23:21:00,27.3,21.7,30.62,West,259,5.0,7.0,79,0.00,,OVC012,0.00,0.00,VWS V14.01,2013-02-09 05:21:00,
2013-02-08 23:26:00,27.5,21.9,30.62,West,259,0.0,0.0,79,0.00,,OVC012,0.00,0.00,VWS V14.01,2013-02-09 05:26:00,
2013-02-08 23:31:00,27.5,21.9,30.62,WSW,246,5.0,6.0,79,0.00,,OVC012,0.00,0.00,VWS V14.01,2013-02-09 05:31:00,
2013-02-08 23:36:00,27.5,21.5,30.62,WSW,239,5.0,8.0,78,0.00,,OVC012,0.00,0.00,VWS V14.01,2013-02-09 05:36:00,
2013-02-08 23:41:00,27.5,21.5,30.62,WSW,247,6.0,6.0,78,0.00,,OVC012,0.00,0.00,VWS V14.01,2013-02-09 05:41:00,
2013-02-08 23:46:00,27.5,21.5,30.62,WSW,242,0.0,1.0,78,0.00,,OVC012,0.00,0.00,VWS V14.01,2013-02-09 05:46:00,
2013-02-08 23:51:00,27.3,21.4,30.62,WSW,242,0.0,0.0,78,0.00,,OVC012,0.00,0.00,VWS V14.01,2013-02-09 05:51:00,
2013-02-08 23:56:00,27.3,21.4,30.62,SSW,201,6.0,7.0,78,0.00,,OVC012,0.00,0.00,VWS V14.01,2013-02-09 05:56:00,